Terminal Aerodrome Forecast
Issued by NWS St Louis, MO

Home | Current Version | Previous Version | Text Only | Print | Product List | Glossary On
Versions: 1 2 3 4 5 6 7 8 9 10 11 12 13 14 15 16 17 18 19 20 21 22 23 24 25 26 27 28 29 30
000
FTUS43 KLSX 292328
TAFCOU
TAF
KCOU 292328Z 3000/3024 10012KT P6SM VCTS SCT025CB BKN040
     FM300200 10009KT 5SM -TSRA OVC015CB
      TEMPO 3002/3005 2SM TSRA BKN007CB
     FM300800 15005KT P6SM VCSH OVC015
     FM301500 25007KT 5SM -SHRA VCTS OVC015CB
     FM301900 28008KT 5SM -SHRA VCTS BKN015CB=

USA.gov is the U.S. government's official web portal to all federal, state and local government web resources and services.